Time;durP1;ratioP1;P1;durP2;ratioP2;P2;SDS_P1;SDS_P2;PMS_P1;PMS_P2;Temp;Humidity;BMP_temperature;BMP_pressure;BME280_temperature;BME280_humidity;BME280_pressure;Samples;Min_cycle;Max_cycle;Signal;HPM_P1;HPM_P2
2024/03/06 00:00:25;;;;;;;23.88;13.77;;;4.50;99.90;;;;;;4971964;28;20524;-80
2024/03/06 00:02:51;;;;;;;21.98;13.27;;;4.50;99.90;;;;;;4972009;28;20055;-80
2024/03/06 00:05:17;;;;;;;18.45;12.20;;;4.50;99.90;;;;;;4973050;28;20023;-80
2024/03/06 00:07:42;;;;;;;19.33;13.13;;;4.40;99.90;;;;;;4973376;28;20027;-80
2024/03/06 00:10:08;;;;;;;22.02;12.95;;;4.40;99.90;;;;;;4971342;28;20026;-80
2024/03/06 00:12:34;;;;;;;20.77;14.13;;;4.50;99.90;;;;;;4971980;28;20279;-80
2024/03/06 00:15:00;;;;;;;25.73;13.80;;;4.50;99.90;;;;;;4972087;28;20029;-80
2024/03/06 00:17:26;;;;;;;26.60;13.90;;;4.50;99.90;;;;;;4971677;28;20054;-80
2024/03/06 00:19:52;;;;;;;25.77;14.27;;;4.50;99.90;;;;;;4971059;28;20030;-80
2024/03/06 00:22:18;;;;;;;21.92;13.48;;;4.40;99.90;;;;;;4972673;28;20433;-80
2024/03/06 00:24:43;;;;;;;35.53;14.55;;;4.40;99.90;;;;;;4971553;28;20135;-80
2024/03/06 00:27:10;;;;;;;26.15;14.68;;;4.50;99.90;;;;;;4972082;28;20023;-80
2024/03/06 00:29:37;;;;;;;28.73;14.20;;;4.40;99.90;;;;;;4970779;28;20552;-80
2024/03/06 00:32:03;;;;;;;22.80;13.45;;;4.40;99.90;;;;;;4971461;28;20035;-80
2024/03/06 00:34:29;;;;;;;29.80;15.30;;;4.40;99.90;;;;;;4971262;28;20027;-80
2024/03/06 00:36:55;;;;;;;28.45;15.43;;;4.40;99.90;;;;;;4971361;28;20034;-81
2024/03/06 00:39:20;;;;;;;23.25;13.40;;;4.40;99.90;;;;;;4970732;28;20160;-80
2024/03/06 00:41:46;;;;;;;27.08;14.18;;;4.40;99.90;;;;;;4972666;28;20470;-80
2024/03/06 00:44:11;;;;;;;26.85;14.98;;;4.40;99.90;;;;;;4971267;28;20462;-80
2024/03/06 00:46:38;;;;;;;27.17;14.23;;;4.30;99.90;;;;;;4971103;28;20023;-80
2024/03/06 00:49:04;;;;;;;25.52;14.63;;;4.40;99.90;;;;;;4970871;28;20027;-80
2024/03/06 00:51:30;;;;;;;23.90;13.90;;;4.40;99.90;;;;;;4970920;28;20057;-79
2024/03/06 00:53:56;;;;;;;27.95;15.10;;;4.40;99.90;;;;;;4971934;28;20038;-81
2024/03/06 00:56:22;;;;;;;24.25;14.98;;;4.40;99.90;;;;;;4972280;28;20106;-80
2024/03/06 00:58:47;;;;;;;28.80;15.90;;;4.40;99.90;;;;;;4972205;28;20117;-81
2024/03/06 01:01:13;;;;;;;29.77;16.00;;;4.30;99.90;;;;;;4970746;28;20031;-80
2024/03/06 01:03:38;;;;;;;25.58;15.55;;;4.30;99.90;;;;;;4970822;28;20019;-80
2024/03/06 01:06:04;;;;;;;27.38;15.07;;;4.30;99.90;;;;;;4971846;28;20026;-80
2024/03/06 01:08:31;;;;;;;29.70;17.05;;;4.30;99.90;;;;;;4971926;28;20034;-80
2024/03/06 01:10:57;;;;;;;25.48;15.55;;;4.30;99.90;;;;;;4970255;28;20026;-80
2024/03/06 01:13:22;;;;;;;30.52;16.15;;;4.30;99.90;;;;;;4970844;28;20399;-81
2024/03/06 01:15:48;;;;;;;28.75;15.23;;;4.30;99.90;;;;;;4972290;28;20035;-81
2024/03/06 01:18:14;;;;;;;25.80;16.38;;;4.30;99.90;;;;;;4970885;28;20122;-81
2024/03/06 01:20:40;;;;;;;26.15;15.73;;;4.30;99.90;;;;;;4970502;28;20535;-81
2024/03/06 01:23:06;;;;;;;28.65;15.77;;;4.30;99.90;;;;;;4971948;28;20098;-81
2024/03/06 01:25:31;;;;;;;29.17;16.23;;;4.30;99.90;;;;;;4970457;28;20027;-81
2024/03/06 01:27:57;;;;;;;25.88;15.65;;;4.30;99.90;;;;;;4970400;28;20018;-81
2024/03/06 01:30:22;;;;;;;28.55;16.73;;;4.30;99.90;;;;;;4970396;28;20026;-81
2024/03/06 01:32:48;;;;;;;27.40;15.57;;;4.30;99.90;;;;;;4971749;28;20065;-81
2024/03/06 01:35:14;;;;;;;33.20;17.40;;;4.30;99.90;;;;;;4970554;28;20062;-81
2024/03/06 01:37:39;;;;;;;27.13;16.13;;;4.30;99.90;;;;;;4970948;28;20027;-81
2024/03/06 01:40:06;;;;;;;27.90;14.93;;;4.30;99.90;;;;;;4969782;28;20484;-81
2024/03/06 01:42:32;;;;;;;26.95;16.80;;;4.30;99.90;;;;;;4970298;28;20093;-81
2024/03/06 01:44:58;;;;;;;31.52;16.65;;;4.30;99.90;;;;;;4970061;28;20469;-81
2024/03/06 01:47:23;;;;;;;30.88;16.70;;;4.30;99.90;;;;;;4970069;28;20026;-81
2024/03/06 01:49:49;;;;;;;30.58;16.20;;;4.20;99.90;;;;;;4969413;28;20035;-81
2024/03/06 01:52:17;;;;;;;26.88;15.55;;;4.20;99.90;;;;;;4969869;28;20081;-80
2024/03/06 01:54:44;;;;;;;32.53;17.88;;;4.20;99.90;;;;;;4970110;28;20018;-80
2024/03/06 01:57:13;;;;;;;33.20;17.88;;;4.20;99.90;;;;;;4970214;28;20113;-80
2024/03/06 01:59:39;;;;;;;26.52;16.08;;;4.20;99.90;;;;;;4971154;28;20023;-80
2024/03/06 02:02:05;;;;;;;30.42;18.20;;;4.20;99.90;;;;;;4969548;28;20106;-81
2024/03/06 02:04:31;;;;;;;33.53;16.75;;;4.10;99.90;;;;;;4971439;28;20141;-80
2024/03/06 02:06:57;;;;;;;27.80;16.92;;;4.10;99.90;;;;;;4969917;28;20558;-80
2024/03/06 02:09:23;;;;;;;31.90;17.67;;;4.10;99.90;;;;;;4969277;28;20109;-80
2024/03/06 02:11:50;;;;;;;30.95;17.13;;;4.10;99.90;;;;;;4969634;28;20285;-81
2024/03/06 02:14:16;;;;;;;33.10;18.17;;;4.00;99.90;;;;;;4971161;28;20041;-81
2024/03/06 02:16:41;;;;;;;34.05;17.77;;;4.00;99.90;;;;;;4969768;28;20035;-81
2024/03/06 02:19:08;;;;;;;26.67;17.02;;;4.00;99.90;;;;;;4969645;28;20043;-81
2024/03/06 02:21:34;;;;;;;30.77;17.58;;;4.00;99.90;;;;;;4970965;28;20042;-81
2024/03/06 02:24:00;;;;;;;30.50;17.38;;;4.00;99.90;;;;;;4969788;28;20023;-81
2024/03/06 02:26:25;;;;;;;32.15;18.60;;;4.00;99.90;;;;;;4969734;28;20026;-81
2024/03/06 02:28:56;;;;;;;30.52;17.23;;;4.10;99.90;;;;;;4969452;28;20027;-81
2024/03/06 02:31:22;;;;;;;30.30;17.20;;;4.00;99.90;;;;;;4969236;28;20031;-81
2024/03/06 02:33:49;;;;;;;32.92;19.40;;;4.00;99.90;;;;;;4969547;28;20055;-81
2024/03/06 02:36:16;;;;;;;28.95;16.65;;;4.00;99.90;;;;;;4969449;28;20081;-81
2024/03/06 02:38:43;;;;;;;34.35;18.10;;;4.00;99.90;;;;;;4985723;28;20552;-80
2024/03/06 02:41:08;;;;;;;27.30;16.35;;;4.00;99.90;;;;;;4969056;28;20105;-80
2024/03/06 02:43:34;;;;;;;29.63;16.67;;;4.00;99.90;;;;;;4971806;28;20050;-81
2024/03/06 02:46:00;;;;;;;32.38;19.02;;;4.00;99.90;;;;;;4970846;28;20027;-81
2024/03/06 02:48:25;;;;;;;34.08;17.98;;;4.00;99.90;;;;;;4985925;28;20481;-80
2024/03/06 02:50:51;;;;;;;35.00;18.17;;;4.00;99.90;;;;;;4974304;28;20093;-81
2024/03/06 02:53:17;;;;;;;32.88;18.17;;;3.90;99.90;;;;;;4973350;28;20026;-81
2024/03/06 02:55:42;;;;;;;32.30;17.85;;;3.90;99.90;;;;;;4973207;28;20605;-81
2024/03/06 02:58:08;;;;;;;34.13;17.95;;;3.90;99.90;;;;;;4973157;28;20386;-80
2024/03/06 03:00:34;;;;;;;32.30;18.10;;;3.90;99.90;;;;;;4972497;28;20030;-81
2024/03/06 03:02:59;;;;;;;32.17;18.85;;;3.90;99.90;;;;;;4974236;28;20486;-81
2024/03/06 03:05:25;;;;;;;30.52;19.17;;;3.90;99.90;;;;;;4973010;28;20086;-80
2024/03/06 03:07:51;;;;;;;33.72;18.65;;;3.90;99.90;;;;;;4972866;28;20138;-80
2024/03/06 03:10:17;;;;;;;31.48;17.10;;;3.90;99.90;;;;;;4972618;28;20050;-81
2024/03/06 03:12:42;;;;;;;32.60;17.13;;;3.90;99.90;;;;;;4973139;28;20027;-80
2024/03/06 03:15:09;;;;;;;34.63;18.02;;;3.90;99.90;;;;;;4972823;28;20034;-81
2024/03/06 03:17:35;;;;;;;37.05;19.40;;;3.80;99.90;;;;;;4973935;28;20185;-81
2024/03/06 03:20:10;;;;;;;27.05;17.52;;;3.80;99.90;;;;;;4972028;28;20026;-81
2024/03/06 03:22:38;;;;;;;34.95;19.15;;;3.80;99.90;;;;;;4972517;28;20446;-81
2024/03/06 03:25:07;;;;;;;29.55;18.42;;;3.80;99.90;;;;;;4972606;28;20022;-81
2024/03/06 03:27:33;;;;;;;34.58;17.70;;;3.80;99.90;;;;;;4972466;28;20030;-81
2024/03/06 03:29:58;;;;;;;26.92;16.48;;;3.80;99.90;;;;;;4973385;28;20086;-81
2024/03/06 03:32:24;;;;;;;31.48;18.67;;;3.80;99.90;;;;;;4973911;28;20473;-81
2024/03/06 03:34:49;;;;;;;33.75;18.02;;;3.70;99.90;;;;;;4972942;28;20023;-81
2024/03/06 03:37:15;;;;;;;34.05;18.65;;;3.80;99.90;;;;;;4972628;28;20021;-81
2024/03/06 03:39:43;;;;;;;29.70;17.65;;;3.70;99.90;;;;;;4972962;28;20053;-80
2024/03/06 03:42:08;;;;;;;32.67;19.08;;;3.80;99.90;;;;;;4988142;28;20510;-80
2024/03/06 03:44:34;;;;;;;31.85;17.48;;;3.80;99.90;;;;;;4972232;28;20121;-80
2024/03/06 03:46:59;;;;;;;32.50;18.27;;;3.80;99.90;;;;;;4973511;28;20117;-80
2024/03/06 03:49:26;;;;;;;39.42;18.60;;;3.80;99.90;;;;;;4971685;28;20063;-81
2024/03/06 03:51:52;;;;;;;30.48;18.00;;;3.80;99.90;;;;;;4973841;28;20019;-80
2024/03/06 03:54:17;;;;;;;33.70;18.98;;;3.70;99.90;;;;;;4972497;28;20030;-80
2024/03/06 03:56:43;;;;;;;31.83;18.65;;;3.70;99.90;;;;;;4972218;28;20062;-80
2024/03/06 03:59:08;;;;;;;29.95;17.60;;;3.70;99.90;;;;;;4971606;28;20045;-80
2024/03/06 04:01:34;;;;;;;31.45;17.75;;;3.70;99.90;;;;;;4971100;28;20026;-80
2024/03/06 04:03:59;;;;;;;33.53;17.52;;;3.70;99.90;;;;;;4973229;28;20049;-80
2024/03/06 04:06:25;;;;;;;31.42;16.25;;;3.70;99.90;;;;;;4971526;28;20482;-80
2024/03/06 04:08:50;;;;;;;34.35;17.90;;;3.70;99.90;;;;;;4971716;28;20027;-81
2024/03/06 04:11:16;;;;;;;29.33;16.48;;;3.70;99.90;;;;;;4972585;28;20062;-81
2024/03/06 04:13:41;;;;;;;35.20;17.88;;;3.70;99.90;;;;;;4972916;28;20029;-80
2024/03/06 04:16:07;;;;;;;32.15;17.67;;;3.70;99.90;;;;;;4972964;28;20035;-80
2024/03/06 04:18:36;;;;;;;26.23;16.42;;;3.70;99.90;;;;;;4972892;28;20034;-81
2024/03/06 04:21:05;;;;;;;30.05;17.45;;;3.70;99.90;;;;;;4971227;28;20038;-81
2024/03/06 04:23:32;;;;;;;28.15;16.08;;;3.70;99.90;;;;;;4972976;28;20023;-81
2024/03/06 04:25:58;;;;;;;32.03;17.20;;;3.60;99.90;;;;;;4972706;28;20437;-80
2024/03/06 04:28:24;;;;;;;32.40;16.95;;;3.60;99.90;;;;;;4971332;28;20023;-81
2024/03/06 04:30:49;;;;;;;32.08;18.08;;;3.60;99.90;;;;;;4971050;28;20531;-81
2024/03/06 04:33:15;;;;;;;34.75;18.48;;;3.60;99.90;;;;;;4971112;28;20129;-81
2024/03/06 04:35:41;;;;;;;33.25;18.20;;;3.50;99.90;;;;;;4972838;28;20030;-81
2024/03/06 04:38:06;;;;;;;34.47;19.17;;;3.50;99.90;;;;;;4972558;28;20031;-81
2024/03/06 04:40:34;;;;;;;29.58;17.27;;;3.50;99.90;;;;;;4970600;28;20031;-80
2024/03/06 04:43:00;;;;;;;37.95;19.27;;;3.50;99.90;;;;;;4971364;28;20022;-81
2024/03/06 04:45:25;;;;;;;35.33;18.35;;;3.50;99.90;;;;;;4987349;28;20114;-81
2024/03/06 04:47:51;;;;;;;34.20;18.23;;;3.40;99.90;;;;;;4971048;28;20071;-80
2024/03/06 04:50:17;;;;;;;40.33;19.15;;;3.40;99.90;;;;;;4970474;28;20037;-80
2024/03/06 04:52:43;;;;;;;37.80;20.10;;;3.40;99.90;;;;;;4971006;28;20546;-81
2024/03/06 04:55:12;;;;;;;41.72;19.90;;;3.40;99.90;;;;;;4970987;28;20062;-81
2024/03/06 04:57:38;;;;;;;36.53;19.48;;;3.30;99.90;;;;;;4987019;28;20534;-81
2024/03/06 05:00:08;;;;;;;34.03;18.77;;;3.20;99.90;;;;;;4970588;28;20379;-80
2024/03/06 05:02:35;;;;;;;37.00;19.23;;;3.20;99.90;;;;;;4970987;28;20022;-80
2024/03/06 05:05:02;;;;;;;38.35;19.40;;;3.30;99.90;;;;;;4970859;28;20106;-80
2024/03/06 05:07:29;;;;;;;38.15;19.40;;;3.30;99.90;;;;;;4970797;28;20070;-81
2024/03/06 05:09:54;;;;;;;34.42;19.52;;;3.30;99.90;;;;;;4971899;28;20678;-80
2024/03/06 05:12:20;;;;;;;32.80;18.77;;;3.30;99.90;;;;;;4970305;28;20038;-80
2024/03/06 05:14:45;;;;;;;38.25;20.55;;;3.30;99.90;;;;;;4970503;28;20077;-81
2024/03/06 05:17:11;;;;;;;39.22;21.90;;;3.30;99.90;;;;;;4970740;28;20034;-81
2024/03/06 05:19:37;;;;;;;35.88;19.58;;;3.30;99.90;;;;;;4970217;28;20027;-81
2024/03/06 05:22:03;;;;;;;31.65;19.52;;;3.20;99.90;;;;;;4970400;28;20039;-81
2024/03/06 05:24:30;;;;;;;37.55;22.17;;;3.30;99.90;;;;;;4986822;28;20031;-81
2024/03/06 05:26:55;;;;;;;36.92;21.25;;;3.20;99.90;;;;;;4970455;28;20311;-81
2024/03/06 05:29:21;;;;;;;39.65;21.42;;;3.20;99.90;;;;;;4970048;28;20399;-81
2024/03/06 05:31:46;;;;;;;38.88;21.60;;;3.20;99.90;;;;;;4971485;28;20038;-81
2024/03/06 05:34:12;;;;;;;38.67;20.63;;;3.10;99.90;;;;;;4970112;28;20038;-81
2024/03/06 05:36:37;;;;;;;43.97;21.02;;;3.10;99.90;;;;;;4969765;28;20034;-80
2024/03/06 05:39:12;;;;;;;36.25;18.60;;;3.10;99.90;;;;;;4969926;28;20022;-80
2024/03/06 05:41:39;;;;;;;38.58;21.00;;;3.10;99.90;;;;;;4971402;28;20030;-80
2024/03/06 05:44:05;;;;;;;39.63;20.33;;;3.10;99.90;;;;;;4970029;28;20122;-80
2024/03/06 05:46:30;;;;;;;35.88;19.77;;;3.10;99.90;;;;;;4970198;28;20113;-81
2024/03/06 05:48:56;;;;;;;38.33;20.10;;;3.10;99.90;;;;;;4970932;28;20023;-80
2024/03/06 05:51:21;;;;;;;39.78;20.67;;;3.10;99.90;;;;;;4969445;28;20026;-81
2024/03/06 05:53:47;;;;;;;42.53;20.48;;;3.10;99.90;;;;;;4971213;28;20109;-80
2024/03/06 05:56:12;;;;;;;41.88;21.27;;;3.20;99.90;;;;;;4969640;28;20034;-81
2024/03/06 05:58:38;;;;;;;37.38;19.98;;;3.20;99.90;;;;;;4971009;28;20336;-81
2024/03/06 06:01:03;;;;;;;41.63;20.63;;;3.20;99.90;;;;;;4969042;28;20528;-80
2024/03/06 06:03:30;;;;;;;40.33;22.42;;;3.20;99.90;;;;;;4969601;28;20030;-81
2024/03/06 06:05:56;;;;;;;36.17;21.25;;;3.20;99.90;;;;;;4970693;28;20026;-80
2024/03/06 06:08:21;;;;;;;36.25;19.63;;;3.20;99.90;;;;;;4969323;28;20045;-81
2024/03/06 06:10:47;;;;;;;37.15;20.45;;;3.20;99.90;;;;;;4971027;28;20101;-81
2024/03/06 06:13:13;;;;;;;41.13;20.77;;;3.20;99.90;;;;;;4970330;28;20033;-81
2024/03/06 06:15:38;;;;;;;43.63;21.95;;;3.20;99.90;;;;;;4969951;28;20054;-81
2024/03/06 06:18:04;;;;;;;39.33;20.80;;;3.30;99.90;;;;;;4971313;28;20069;-81
2024/03/06 06:20:30;;;;;;;40.35;22.27;;;3.30;99.90;;;;;;4969354;28;20034;-81
2024/03/06 06:22:56;;;;;;;34.88;20.05;;;3.30;99.90;;;;;;4970828;28;20027;-81
2024/03/06 06:25:22;;;;;;;39.03;19.23;;;3.30;99.90;;;;;;4970689;28;20045;-81
2024/03/06 06:27:49;;;;;;;35.72;20.92;;;3.40;99.90;;;;;;4985866;28;20486;-81
2024/03/06 06:30:16;;;;;;;38.92;21.70;;;3.30;99.90;;;;;;4969455;28;20030;-81
2024/03/06 06:32:42;;;;;;;42.55;21.85;;;3.40;99.90;;;;;;4969416;28;20028;-81
2024/03/06 06:35:09;;;;;;;41.63;22.13;;;3.30;99.90;;;;;;4969373;28;20162;-81
2024/03/06 06:37:35;;;;;;;43.35;22.70;;;3.30;99.90;;;;;;4969459;28;20432;-81
2024/03/06 06:40:06;;;;;;;35.30;20.02;;;3.30;99.90;;;;;;4968811;28;20025;-81
2024/03/06 06:42:35;;;;;;;;;;;3.30;99.90;;;;;;4970075;28;20034;-81
2024/03/06 06:45:02;;;;;;;44.40;22.42;;;3.40;99.90;;;;;;4969093;28;19945;-81
2024/03/06 06:47:28;;;;;;;44.67;22.58;;;3.30;99.90;;;;;;4970383;28;20026;-81
2024/03/06 06:49:53;;;;;;;43.38;22.70;;;3.30;99.90;;;;;;4968676;28;20019;-81
2024/03/06 06:52:19;;;;;;;38.67;20.38;;;3.30;99.90;;;;;;4968966;28;20026;-81
2024/03/06 06:54:45;;;;;;;43.17;22.48;;;3.40;99.90;;;;;;4969265;28;20397;-81
2024/03/06 06:57:10;;;;;;;40.83;22.65;;;3.30;99.90;;;;;;4970628;28;20035;-81
2024/03/06 06:59:36;;;;;;;35.75;20.45;;;3.40;99.90;;;;;;4969993;28;20077;-81
2024/03/06 07:02:03;;;;;;;40.97;21.83;;;3.30;99.90;;;;;;4968331;28;20041;-81
2024/03/06 07:04:28;;;;;;;40.33;21.55;;;3.40;99.90;;;;;;4968825;28;20127;-81
2024/03/06 07:06:54;;;;;;;43.42;21.58;;;3.40;99.90;;;;;;4968861;28;20130;-81
2024/03/06 07:09:19;;;;;;;37.50;20.85;;;3.40;99.90;;;;;;4969096;28;20460;-81
2024/03/06 07:11:45;;;;;;;39.70;22.23;;;3.40;99.90;;;;;;4970871;28;20026;-81
2024/03/06 07:14:12;;;;;;;40.95;22.77;;;3.50;99.90;;;;;;4969899;28;20027;-81
2024/03/06 07:16:45;;;;;;;39.15;20.55;;;3.50;99.90;;;;;;4969671;28;20031;-81
2024/03/06 07:19:11;;;;;;;40.67;22.48;;;3.60;99.90;;;;;;4969110;28;20026;-81
2024/03/06 07:21:37;;;;;;;38.80;20.60;;;3.70;99.90;;;;;;4971141;28;20039;-81
2024/03/06 07:24:04;;;;;;;41.78;22.45;;;3.80;99.90;;;;;;4969368;28;20023;-81
2024/03/06 07:26:30;;;;;;;42.38;22.65;;;3.90;99.90;;;;;;4969184;28;20042;-81
2024/03/06 07:28:56;;;;;;;38.33;21.85;;;3.90;99.90;;;;;;4970391;28;20027;-81
2024/03/06 07:31:21;;;;;;;35.95;21.65;;;4.00;99.90;;;;;;4970028;28;20058;-81
2024/03/06 07:33:47;;;;;;;40.00;22.45;;;4.00;99.90;;;;;;4968718;28;20031;-81
2024/03/06 07:36:12;;;;;;;41.85;23.00;;;4.10;99.90;;;;;;4970064;28;20030;-81
2024/03/06 07:38:38;;;;;;;40.05;21.88;;;4.10;99.90;;;;;;4972051;28;20027;-81
2024/03/06 07:41:03;;;;;;;42.28;24.08;;;4.20;99.90;;;;;;4971553;28;20029;-81
2024/03/06 07:43:29;;;;;;;36.83;20.92;;;4.20;99.90;;;;;;4971957;28;20437;-81
2024/03/06 07:45:55;;;;;;;42.78;23.00;;;4.20;99.90;;;;;;4971831;28;20394;-81
2024/03/06 07:48:21;;;;;;;46.53;22.13;;;4.30;99.90;;;;;;4972373;28;20030;-81
2024/03/06 07:50:46;;;;;;;35.38;21.17;;;4.50;99.90;;;;;;4971559;28;20027;-81
2024/03/06 07:53:12;;;;;;;37.53;21.60;;;4.60;99.90;;;;;;4973268;28;20027;-82
2024/03/06 07:55:38;;;;;;;41.00;20.88;;;4.80;99.90;;;;;;4972108;28;20027;-81
2024/03/06 07:58:04;;;;;;;35.70;19.92;;;4.90;99.90;;;;;;4971903;28;20524;-82
2024/03/06 08:00:31;;;;;;;37.88;21.05;;;5.00;99.90;;;;;;4972761;28;20031;-81
2024/03/06 08:02:56;;;;;;;39.63;22.27;;;5.10;99.90;;;;;;4973558;28;20265;-81
2024/03/06 08:05:22;;;;;;;35.45;21.77;;;5.30;99.90;;;;;;4973075;28;20102;-82
2024/03/06 08:07:48;;;;;;;35.05;20.02;;;5.50;99.90;;;;;;4973092;28;20026;-81
2024/03/06 08:10:13;;;;;;;36.42;22.70;;;5.60;99.90;;;;;;4972453;28;20023;-81
2024/03/06 08:12:43;;;;;;;33.50;21.20;;;5.70;99.90;;;;;;4972307;28;20023;-81
2024/03/06 08:15:14;;;;;;;35.45;20.50;;;5.90;99.90;;;;;;4973146;28;20106;-81
2024/03/06 08:17:41;;;;;;;32.97;19.58;;;6.10;99.90;;;;;;4972021;28;20039;-81
2024/03/06 08:20:11;;;;;;;42.58;19.92;;;6.30;99.90;;;;;;4971619;28;20061;-81
2024/03/06 08:22:39;;;;;;;33.55;20.73;;;6.60;99.90;;;;;;4972376;28;20578;-82
2024/03/06 08:25:11;;;;;;;30.30;20.00;;;6.80;99.90;;;;;;4973768;28;20023;-82
2024/03/06 08:27:40;;;;;;;36.05;20.15;;;6.90;99.90;;;;;;4971679;28;20461;-81
2024/03/06 08:30:08;;;;;;;32.70;19.63;;;7.00;99.90;;;;;;4970897;28;20038;-81
2024/03/06 08:32:35;;;;;;;34.50;19.42;;;7.10;99.90;;;;;;4971376;28;20035;-81
2024/03/06 08:35:12;;;;;;;30.88;19.50;;;7.20;99.90;;;;;;4971664;28;20714;-81
2024/03/06 08:37:41;;;;;;;35.03;18.85;;;7.40;99.90;;;;;;4973543;28;20026;-81
2024/03/06 08:40:10;;;;;;;29.02;19.45;;;7.50;99.90;;;;;;4970794;28;20030;-82
2024/03/06 08:42:36;;;;;;;29.13;19.23;;;7.60;99.90;;;;;;4972424;28;20420;-82
2024/03/06 08:45:01;;;;;;;28.52;18.85;;;7.70;99.90;;;;;;4970950;28;20118;-81
2024/03/06 08:47:27;;;;;;;27.52;19.25;;;8.00;99.90;;;;;;4970368;28;20026;-82
2024/03/06 08:49:53;;;;;;;35.60;19.05;;;8.10;99.90;;;;;;4972051;28;20454;-82
2024/03/06 08:52:19;;;;;;;31.23;18.77;;;8.30;99.90;;;;;;4970860;28;20379;-82
2024/03/06 08:54:45;;;;;;;28.92;18.73;;;8.50;99.90;;;;;;4970574;28;20481;-82
2024/03/06 08:57:11;;;;;;;26.70;17.75;;;8.50;99.90;;;;;;4972155;28;20086;-82
2024/03/06 08:59:36;;;;;;;32.47;19.73;;;8.70;99.90;;;;;;4970142;28;20027;-82
2024/03/06 09:02:14;;;;;;;25.30;17.00;;;8.90;99.90;;;;;;4970480;28;20494;-82
2024/03/06 09:04:40;;;;;;;25.75;17.20;;;9.40;99.90;;;;;;4971928;28;20122;-82
2024/03/06 09:07:05;;;;;;;26.08;15.48;;;10.40;99.90;;;;;;4970313;28;20579;-82
2024/03/06 09:09:33;;;;;;;22.55;14.90;;;11.90;99.90;;;;;;4970016;28;20226;-82
2024/03/06 09:12:00;;;;;;;24.30;15.98;;;13.20;96.20;;;;;;4970453;28;20078;-82
2024/03/06 09:14:25;;;;;;;21.55;15.68;;;14.40;92.80;;;;;;4970449;28;20031;-82
2024/03/06 09:16:51;;;;;;;24.42;16.20;;;15.40;90.20;;;;;;4971871;28;20029;-82
2024/03/06 09:19:16;;;;;;;23.90;15.93;;;16.50;82.30;;;;;;4969991;28;20482;-82
2024/03/06 09:21:42;;;;;;;21.45;15.02;;;17.20;80.10;;;;;;4970359;28;20035;-82
2024/03/06 09:24:07;;;;;;;19.15;14.73;;;17.60;76.80;;;;;;4969822;28;20023;-82
2024/03/06 09:26:33;;;;;;;23.08;15.55;;;18.10;77.10;;;;;;4971678;28;20026;-82
2024/03/06 09:28:59;;;;;;;19.50;15.02;;;18.60;74.60;;;;;;4971284;28;20023;-82
2024/03/06 09:31:25;;;;;;;18.50;14.40;;;18.70;72.70;;;;;;4969723;28;20096;-83
2024/03/06 09:33:50;;;;;;;17.77;14.27;;;19.30;72.90;;;;;;4986460;28;20421;-82
2024/03/06 09:36:16;;;;;;;20.17;14.57;;;19.80;69.80;;;;;;4986199;28;20145;-82
2024/03/06 09:38:42;;;;;;;21.75;15.10;;;20.30;68.80;;;;;;4971625;28;20029;-83
2024/03/06 09:41:08;;;;;;;19.60;14.60;;;20.20;66.70;;;;;;4970981;28;20018;-82
2024/03/06 09:43:34;;;;;;;18.10;14.18;;;20.00;67.40;;;;;;4971872;28;20466;-82
2024/03/06 09:46:02;;;;;;;18.10;13.57;;;19.80;67.70;;;;;;4971463;28;20033;-82
2024/03/06 09:48:29;;;;;;;20.65;14.13;;;20.20;67.40;;;;;;4971612;28;20496;-82
2024/03/06 09:51:00;;;;;;;17.65;14.35;;;20.10;66.40;;;;;;4971377;28;20049;-82
2024/03/06 09:53:26;;;;;;;17.27;13.85;;;20.50;64.70;;;;;;4970073;28;20532;-82
2024/03/06 09:55:52;;;;;;;17.38;13.45;;;20.50;64.10;;;;;;4971221;28;20035;-82
2024/03/06 09:58:19;;;;;;;19.35;13.32;;;20.20;65.30;;;;;;4970501;28;20031;-82
2024/03/06 10:00:44;;;;;;;14.90;13.27;;;20.60;64.50;;;;;;4985342;28;20515;-82
2024/03/06 10:03:11;;;;;;;20.20;15.73;;;20.40;65.60;;;;;;4969627;28;20232;-82
2024/03/06 10:05:37;;;;;;;21.35;14.48;;;20.00;67.20;;;;;;4970985;28;20019;-82
2024/03/06 10:08:04;;;;;;;17.67;13.45;;;20.20;65.20;;;;;;4970921;28;20122;-83
2024/03/06 10:10:30;;;;;;;22.63;16.38;;;20.80;64.10;;;;;;4970790;28;20031;-82
2024/03/06 10:13:00;;;;;;;19.58;15.18;;;21.90;60.80;;;;;;4969231;28;20073;-83
2024/03/06 10:15:28;;;;;;;20.52;13.90;;;22.30;61.50;;;;;;4970871;28;20042;-82
2024/03/06 10:18:11;;;;;;;19.40;14.85;;;21.50;62.50;;;;;;4970622;28;20055;-82
2024/03/06 10:20:37;;;;;;;18.80;13.52;;;21.00;64.70;;;;;;4968774;28;20367;-83
2024/03/06 10:23:02;;;;;;;17.65;13.50;;;21.20;63.60;;;;;;4970623;28;20093;-82
2024/03/06 10:25:28;;;;;;;14.65;13.05;;;21.20;61.50;;;;;;4970637;28;20390;-82
2024/03/06 10:28:07;;;;;;;19.80;14.43;;;21.80;60.00;;;;;;4969213;28;20034;-82
2024/03/06 10:30:36;;;;;;;16.50;12.73;;;21.50;61.00;;;;;;4970185;28;20380;-82
2024/03/06 10:33:06;;;;;;;21.10;12.70;;;21.60;61.90;;;;;;4969101;28;20110;-82
2024/03/06 10:35:38;;;;;;;17.03;13.73;;;22.10;61.60;;;;;;4969546;28;20107;-83
2024/03/06 10:38:05;;;;;;;17.13;14.32;;;22.30;60.50;;;;;;4968717;28;20274;-83
2024/03/06 10:40:32;;;;;;;19.35;14.77;;;22.50;59.90;;;;;;4969596;28;20027;-83
2024/03/06 10:43:03;;;;;;;16.63;14.05;;;22.40;57.20;;;;;;4970009;28;20065;-83
2024/03/06 10:45:46;;;;;;;24.40;14.40;;;21.90;58.00;;;;;;4968820;28;20482;-83
2024/03/06 10:48:13;;;;;;;16.13;13.50;;;22.20;58.00;;;;;;4970524;28;20113;-83
2024/03/06 10:50:44;;;;;;;19.55;12.45;;;22.10;59.40;;;;;;4970058;28;20405;-80
2024/03/06 10:53:11;;;;;;;17.15;13.73;;;21.80;58.20;;;;;;4969387;28;20027;-83
2024/03/06 10:55:37;;;;;;;17.08;12.15;;;22.00;58.90;;;;;;4969212;28;20085;-82
2024/03/06 10:58:08;;;;;;;14.45;12.15;;;22.00;58.30;;;;;;4968929;28;20027;-83
2024/03/06 11:00:37;;;;;;;14.98;11.75;;;22.30;58.70;;;;;;4972732;28;20034;-83
2024/03/06 11:03:08;;;;;;;14.88;11.48;;;22.50;58.30;;;;;;4970566;28;20027;-82
2024/03/06 11:05:40;;;;;;;17.60;12.38;;;22.40;58.40;;;;;;4974027;28;20377;-83
2024/03/06 11:08:13;;;;;;;16.90;11.27;;;21.60;58.60;;;;;;4974129;28;20462;-82
2024/03/06 11:10:41;;;;;;;14.00;12.30;;;22.20;57.80;;;;;;4990706;28;20049;-83
2024/03/06 11:13:25;;;;;;;14.95;12.23;;;22.60;57.20;;;;;;4974487;28;20038;-82
2024/03/06 11:15:53;;;;;;;19.98;12.57;;;22.80;56.50;;;;;;4974477;28;20023;-83
2024/03/06 11:18:28;;;;;;;13.32;10.88;;;22.90;55.20;;;;;;4973856;28;20486;-83
2024/03/06 11:20:59;;;;;;;15.27;12.27;;;22.60;56.60;;;;;;4973553;28;20027;-82
2024/03/06 11:23:25;;;;;;;13.50;11.88;;;22.00;58.30;;;;;;4972628;28;20066;-83
2024/03/06 11:25:50;;;;;;;13.02;11.60;;;22.30;58.50;;;;;;4973773;28;20071;-83
2024/03/06 11:28:21;;;;;;;15.20;12.52;;;22.90;56.40;;;;;;4988691;28;20498;-83
2024/03/06 11:30:47;;;;;;;17.45;12.50;;;23.10;54.70;;;;;;4971760;28;20026;-83
2024/03/06 11:33:16;;;;;;;15.80;12.25;;;22.30;56.70;;;;;;4973794;28;20101;-83
2024/03/06 11:35:44;;;;;;;19.65;12.68;;;20.50;57.70;;;;;;4973681;28;20110;-82
2024/03/06 11:38:10;;;;;;;16.58;12.50;;;20.00;58.60;;;;;;4988509;28;20038;-82
2024/03/06 11:40:43;;;;;;;16.48;13.55;;;20.50;58.90;;;;;;4973296;28;20031;-83
2024/03/06 11:43:27;;;;;;;17.23;12.70;;;21.00;58.00;;;;;;4972575;28;20143;-82
2024/03/06 11:45:53;;;;;;;19.25;14.07;;;21.00;59.40;;;;;;4972449;28;20389;-83
2024/03/06 11:48:21;;;;;;;20.10;12.48;;;21.10;57.20;;;;;;4972447;28;20444;-83
2024/03/06 11:50:47;;;;;;;15.98;11.40;;;21.50;59.10;;;;;;4971858;28;20089;-83
2024/03/06 11:53:14;;;;;;;17.00;11.13;;;22.30;58.30;;;;;;4973574;28;20109;-83
2024/03/06 11:55:40;;;;;;;17.08;11.63;;;22.90;55.50;;;;;;4973354;28;20422;-83
2024/03/06 11:58:07;;;;;;;14.68;11.98;;;23.10;54.80;;;;;;4971790;28;20034;-83
2024/03/06 12:00:33;;;;;;;13.55;11.48;;;22.60;54.40;;;;;;4972778;28;20021;-83
2024/03/06 12:02:59;;;;;;;14.02;11.68;;;22.40;57.00;;;;;;4971329;28;20019;-82
2024/03/06 12:05:25;;;;;;;18.58;12.55;;;22.40;55.80;;;;;;4971761;28;20054;-82
2024/03/06 12:07:51;;;;;;;14.15;12.35;;;22.70;56.80;;;;;;4972829;28;20018;-83
2024/03/06 12:10:17;;;;;;;17.50;11.55;;;22.40;56.10;;;;;;4971131;28;20030;-83
2024/03/06 12:12:44;;;;;;;14.77;12.35;;;22.90;54.70;;;;;;4971775;28;20023;-81
2024/03/06 12:15:14;;;;;;;13.80;10.77;;;23.10;56.20;;;;;;4971428;28;20473;-80
2024/03/06 12:17:51;;;;;;;13.63;11.60;;;23.00;56.00;;;;;;4972905;28;20123;-81
2024/03/06 12:20:17;;;;;;;14.88;12.43;;;22.30;55.70;;;;;;4971038;28;20482;-80
2024/03/06 12:22:50;;;;;;;13.38;11.90;;;22.60;55.60;;;;;;4971888;28;20497;-80
2024/03/06 12:25:20;;;;;;;14.40;11.45;;;22.30;55.70;;;;;;4971599;28;20512;-81
2024/03/06 12:27:46;;;;;;;16.88;12.88;;;21.90;57.20;;;;;;4972782;28;20037;-82
2024/03/06 12:30:13;;;;;;;15.40;11.98;;;21.70;58.00;;;;;;4970816;28;20030;-82
2024/03/06 12:32:39;;;;;;;16.60;12.23;;;21.30;57.90;;;;;;4972821;28;20030;-81